createdAt,value
2018-05-18T00:00:38.851Z,6.87
2018-05-18T00:03:07.238Z,4.87
2018-05-18T00:05:36.489Z,10.60
2018-05-18T00:08:04.966Z,5.47
2018-05-18T00:10:33.390Z,10.43
2018-05-18T00:13:01.931Z,9.20
2018-05-18T00:15:30.409Z,6.73
2018-05-18T00:17:58.993Z,8.03
2018-05-18T00:20:28.420Z,6.53
2018-05-18T00:22:56.911Z,5.20
2018-05-18T00:25:25.370Z,5.80
2018-05-18T00:27:53.836Z,4.97
2018-05-18T00:30:22.415Z,9.00
2018-05-18T00:32:50.897Z,8.33
2018-05-18T00:35:19.249Z,7.13
2018-05-18T00:37:48.379Z,6.37
2018-05-18T00:40:16.792Z,6.37
2018-05-18T00:42:45.849Z,8.03
2018-05-18T00:45:14.325Z,4.83
2018-05-18T00:47:42.824Z,6.67
2018-05-18T00:50:11.291Z,9.67
2018-05-18T00:52:39.698Z,8.97
2018-05-18T00:58:10.753Z,7.73
2018-05-18T01:00:39.256Z,8.20
2018-05-18T01:03:07.788Z,9.00
2018-05-18T01:05:36.373Z,9.43
2018-05-18T01:08:04.886Z,6.90
2018-05-18T01:10:34.054Z,10.83
2018-05-18T01:13:02.540Z,9.20
2018-05-18T01:15:30.922Z,9.83
2018-05-18T01:17:59.395Z,8.20
2018-05-18T01:20:27.972Z,13.60
2018-05-18T01:22:56.464Z,8.63
2018-05-18T01:25:25.698Z,6.80
2018-05-18T01:27:54.092Z,6.90
2018-05-18T01:30:23.177Z,11.60
2018-05-18T01:32:51.735Z,7.47
2018-05-18T01:35:20.294Z,10.13
2018-05-18T01:37:49.698Z,7.60
2018-05-18T01:40:18.097Z,9.97
2018-05-18T01:42:47.577Z,7.60
2018-05-18T01:45:16.161Z,6.57
2018-05-18T01:47:44.655Z,7.30
2018-05-18T01:50:13.071Z,9.97
2018-05-18T01:52:41.608Z,8.27
2018-05-18T01:55:10.091Z,5.50
2018-05-18T01:57:38.669Z,7.97
2018-05-18T02:00:07.214Z,7.40
2018-05-18T02:02:36.367Z,5.70
2018-05-18T02:05:06.076Z,9.33
2018-05-18T02:07:35.431Z,8.07
2018-05-18T02:10:04.759Z,6.90
2018-05-18T02:12:33.222Z,7.87
2018-05-18T02:15:01.725Z,9.07
2018-05-18T02:17:30.343Z,9.20
2018-05-18T02:20:00.276Z,7.13
2018-05-18T02:22:29.521Z,12.70
2018-05-18T02:24:58.240Z,7.57
2018-05-18T02:27:26.745Z,8.00
2018-05-18T02:29:55.277Z,7.70
2018-05-18T02:32:23.960Z,9.83
2018-05-18T02:34:52.639Z,8.73
2018-05-18T02:37:21.125Z,11.03
2018-05-18T02:39:49.525Z,10.53
2018-05-18T02:42:18.307Z,9.10
2018-05-18T02:44:46.771Z,11.73
2018-05-18T02:47:15.183Z,9.10
2018-05-18T02:49:43.607Z,9.77
2018-05-18T02:52:12.109Z,9.07
2018-05-18T02:54:40.596Z,7.97
2018-05-18T02:57:08.960Z,8.20
2018-05-18T02:59:37.554Z,10.33
2018-05-18T03:02:06.036Z,11.47
2018-05-18T03:04:34.346Z,9.80
2018-05-18T03:07:03.097Z,8.23
2018-05-18T03:09:31.685Z,9.03
2018-05-18T03:12:00.062Z,11.67
2018-05-18T03:14:28.365Z,8.17
2018-05-18T03:16:56.692Z,10.07
2018-05-18T03:19:25.298Z,6.67
2018-05-18T03:21:53.632Z,7.07
2018-05-18T03:24:21.997Z,7.93
2018-05-18T03:26:52.611Z,7.67
2018-05-18T03:29:20.992Z,10.47
2018-05-18T03:31:49.646Z,9.00
2018-05-18T03:34:18.288Z,10.37
2018-05-18T03:36:47.384Z,9.97
2018-05-18T03:39:15.951Z,7.53
2018-05-18T03:41:44.492Z,7.47
2018-05-18T03:44:12.979Z,9.33
2018-05-18T03:46:41.418Z,7.27
2018-05-18T03:49:10.651Z,11.10
2018-05-18T03:51:39.173Z,9.27
2018-05-18T03:54:07.505Z,8.57
2018-05-18T03:56:35.999Z,10.73
2018-05-18T03:59:04.474Z,9.47
2018-05-18T04:01:44.969Z,11.33
2018-05-18T04:04:25.394Z,10.97
2018-05-18T04:07:05.738Z,10.27
2018-05-18T04:09:34.236Z,7.83
2018-05-18T04:12:02.948Z,12.07
2018-05-18T04:14:31.408Z,11.57
2018-05-18T04:16:59.739Z,10.80
2018-05-18T04:19:28.269Z,11.40
2018-05-18T04:21:56.689Z,14.10
2018-05-18T04:24:25.332Z,10.27
2018-05-18T04:26:53.622Z,8.80
2018-05-18T04:29:22.093Z,9.77
2018-05-18T04:31:51.146Z,12.40
2018-05-18T04:34:20.265Z,9.23
2018-05-18T04:36:48.754Z,22.33
2018-05-18T04:39:17.247Z,19.00
2018-05-18T04:41:46.896Z,12.77
2018-05-18T04:44:15.374Z,13.27
2018-05-18T04:46:44.012Z,13.93
2018-05-18T04:49:12.387Z,14.53
2018-05-18T04:51:40.735Z,24.77
2018-05-18T04:54:09.977Z,19.70
2018-05-18T04:56:38.457Z,26.33
2018-05-18T04:59:06.931Z,20.43
2018-05-18T05:01:35.554Z,12.50
2018-05-18T05:04:03.896Z,24.93
2018-05-18T05:06:32.266Z,24.13
2018-05-18T05:09:00.683Z,34.43
2018-05-18T05:11:29.010Z,42.00
2018-05-18T05:13:57.373Z,32.73
2018-05-18T05:16:26.498Z,37.30
2018-05-18T05:18:55.306Z,33.97
2018-05-18T05:21:23.697Z,65.20
2018-05-18T05:23:52.147Z,51.93
2018-05-18T05:26:20.630Z,56.37
2018-05-18T05:28:48.948Z,45.83
2018-05-18T05:31:17.485Z,71.90
2018-05-18T05:33:45.815Z,53.43
2018-05-18T05:36:15.006Z,31.57
2018-05-18T05:38:43.471Z,40.23
2018-05-18T05:41:11.859Z,54.83
2018-05-18T05:43:41.837Z,28.80
2018-05-18T05:46:10.322Z,38.37
2018-05-18T05:48:38.746Z,15.70
2018-05-18T05:51:07.110Z,19.87
2018-05-18T05:53:35.557Z,44.20
2018-05-18T05:56:04.075Z,20.23
2018-05-18T05:58:32.570Z,19.07
2018-05-18T06:01:00.995Z,13.27
2018-05-18T06:03:29.298Z,16.53
2018-05-18T06:05:57.755Z,13.33
2018-05-18T06:08:26.238Z,18.67
2018-05-18T06:10:54.822Z,8.63
2018-05-18T06:13:23.215Z,18.83
2018-05-18T06:15:51.680Z,10.73
2018-05-18T06:18:20.163Z,13.30
2018-05-18T06:20:48.741Z,8.93
2018-05-18T06:23:17.122Z,13.13
2018-05-18T06:25:45.498Z,11.60
2018-05-18T06:28:13.984Z,15.93
2018-05-18T06:30:42.360Z,9.57
2018-05-18T06:33:10.845Z,12.33
2018-05-18T06:35:39.253Z,12.40
2018-05-18T06:38:07.739Z,12.87
2018-05-18T06:40:36.389Z,12.17
2018-05-18T06:43:05.994Z,13.93
2018-05-18T06:45:34.373Z,13.53
2018-05-18T06:48:02.781Z,10.57
2018-05-18T06:50:31.230Z,7.20
2018-05-18T06:52:59.714Z,14.27
2018-05-18T06:55:28.252Z,9.77
2018-05-18T06:57:57.384Z,8.63
2018-05-18T07:00:26.747Z,11.40
2018-05-18T07:02:55.928Z,13.00
2018-05-18T07:05:24.473Z,21.60
2018-05-18T07:07:52.900Z,18.27
2018-05-18T07:10:22.005Z,16.53
2018-05-18T07:12:51.161Z,16.70
2018-05-18T07:15:19.474Z,16.07
2018-05-18T07:17:47.839Z,21.60
2018-05-18T07:20:17.101Z,15.90
2018-05-18T07:22:45.511Z,19.17
2018-05-18T07:25:13.848Z,18.50
2018-05-18T07:27:42.273Z,26.73
2018-05-18T07:30:12.348Z,26.17
2018-05-18T07:32:40.799Z,24.37
2018-05-18T07:35:09.984Z,24.77
2018-05-18T07:37:39.239Z,32.73
2018-05-18T07:40:07.563Z,30.80
2018-05-18T07:42:36.761Z,28.93
2018-05-18T07:45:05.892Z,27.13
2018-05-18T07:47:34.382Z,22.80
2018-05-18T07:50:03.053Z,23.10
2018-05-18T07:52:32.263Z,18.27
2018-05-18T07:55:00.667Z,20.23
2018-05-18T07:57:29.045Z,16.57
2018-05-18T07:59:57.462Z,19.20
2018-05-18T08:02:25.911Z,18.90
2018-05-18T08:04:54.247Z,20.10
2018-05-18T08:07:22.664Z,21.37
2018-05-18T08:09:51.115Z,21.20
2018-05-18T08:12:19.558Z,22.03
2018-05-18T08:14:48.799Z,18.13
2018-05-18T08:17:17.281Z,15.47
2018-05-18T08:19:45.628Z,15.67
2018-05-18T08:22:14.247Z,15.63
2018-05-18T08:24:43.744Z,20.80
2018-05-18T08:27:23.630Z,16.63
2018-05-18T08:29:52.182Z,13.57
2018-05-18T08:32:20.657Z,20.23
2018-05-18T08:34:49.140Z,14.40
2018-05-18T08:37:17.824Z,20.17
2018-05-18T08:39:46.313Z,13.57
2018-05-18T08:42:15.096Z,14.57
2018-05-18T08:44:43.578Z,13.67
2018-05-18T08:47:12.157Z,14.90
2018-05-18T08:49:40.639Z,14.03
2018-05-18T08:52:09.058Z,12.77
2018-05-18T08:54:37.602Z,17.90
2018-05-18T08:57:06.104Z,15.07
2018-05-18T08:59:34.560Z,13.43
2018-05-18T09:02:02.962Z,12.67
2018-05-18T09:04:31.417Z,15.03
2018-05-18T09:06:59.899Z,14.20
2018-05-18T09:09:28.494Z,13.93
2018-05-18T09:11:57.567Z,18.40
2018-05-18T09:14:26.047Z,12.93
2018-05-18T09:16:54.540Z,10.93
2018-05-18T09:19:22.964Z,16.60
2018-05-18T09:21:51.500Z,8.87
2018-05-18T09:24:20.639Z,10.50
2018-05-18T09:26:49.896Z,13.35
2018-05-18T09:29:18.375Z,14.23
2018-05-18T09:31:46.878Z,14.48
2018-05-18T09:34:15.416Z,10.47
2018-05-18T09:36:44.882Z,9.20
2018-05-18T09:39:13.741Z,9.43
2018-05-18T09:41:42.165Z,10.52
2018-05-18T09:44:10.695Z,11.00
2018-05-18T09:46:39.077Z,16.33
2018-05-18T09:49:07.598Z,11.23
2018-05-18T09:51:36.144Z,8.98
2018-05-18T09:54:04.662Z,14.20
2018-05-18T09:56:33.104Z,12.00
2018-05-18T09:59:01.744Z,30.52
2018-05-18T10:01:30.987Z,32.97
2018-05-18T10:03:59.467Z,39.80
2018-05-18T10:06:27.945Z,21.30
2018-05-18T10:08:56.271Z,22.73
2018-05-18T10:11:24.808Z,22.90
2018-05-18T10:13:53.393Z,63.77
2018-05-18T10:16:22.705Z,34.13
2018-05-18T10:18:51.282Z,16.62
2018-05-18T10:21:19.757Z,9.73
2018-05-18T10:23:48.953Z,14.90
2018-05-18T10:26:17.433Z,49.67
2018-05-18T10:28:45.739Z,17.17
2018-05-18T10:31:14.108Z,17.12
2018-05-18T10:33:42.565Z,17.05
2018-05-18T10:36:11.918Z,8.15
2018-05-18T10:38:40.347Z,12.32
2018-05-18T10:41:08.896Z,9.05
2018-05-18T10:43:38.131Z,8.82
2018-05-18T10:46:06.867Z,8.63
2018-05-18T10:48:35.301Z,10.07
2018-05-18T10:51:03.729Z,11.32
2018-05-18T10:53:33.083Z,9.65
2018-05-18T10:56:01.556Z,9.63
2018-05-18T10:58:30.161Z,10.65
2018-05-18T11:00:58.625Z,12.13
2018-05-18T11:03:27.267Z,12.60
2018-05-18T11:05:56.571Z,9.32
2018-05-18T11:08:25.752Z,10.77
2018-05-18T11:10:54.292Z,9.93
2018-05-18T11:13:22.779Z,7.87
2018-05-18T11:15:51.250Z,10.00
2018-05-18T11:18:19.728Z,9.65
2018-05-18T11:20:49.105Z,9.07
2018-05-18T11:23:17.830Z,6.25
2018-05-18T11:25:47.046Z,8.23
2018-05-18T11:28:15.615Z,8.98
2018-05-18T11:30:44.192Z,8.93
2018-05-18T11:33:12.735Z,9.38
2018-05-18T11:35:41.116Z,8.80
2018-05-18T11:38:09.629Z,11.10
2018-05-18T11:40:38.178Z,11.75
2018-05-18T11:43:06.558Z,8.25
2018-05-18T11:45:35.697Z,6.45
2018-05-18T11:48:04.228Z,9.00
2018-05-18T11:50:33.512Z,8.55
2018-05-18T11:53:02.046Z,9.18
2018-05-18T11:55:30.711Z,8.30
2018-05-18T11:57:59.250Z,7.68
2018-05-18T12:00:27.692Z,7.22
2018-05-18T12:02:56.407Z,15.75
2018-05-18T12:05:25.239Z,9.43
2018-05-18T12:07:54.262Z,6.43
2018-05-18T12:10:23.049Z,13.48
2018-05-18T12:12:51.634Z,7.62
2018-05-18T12:15:20.309Z,6.35
2018-05-18T12:17:49.624Z,6.45
2018-05-18T12:20:19.176Z,8.15
2018-05-18T12:22:47.708Z,6.65
2018-05-18T12:25:16.099Z,8.45
2018-05-18T12:27:45.524Z,6.72
2018-05-18T12:30:14.025Z,7.57
2018-05-18T12:32:42.525Z,9.65
2018-05-18T12:35:10.979Z,7.93
2018-05-18T12:37:41.059Z,7.53
2018-05-18T12:40:09.439Z,5.87
2018-05-18T12:42:37.799Z,47.03
2018-05-18T12:45:06.249Z,5.97
2018-05-18T12:47:35.383Z,9.52
2018-05-18T12:50:03.766Z,6.55
2018-05-18T12:52:32.349Z,10.50
2018-05-18T12:55:00.835Z,12.10
2018-05-18T12:57:29.207Z,5.07
2018-05-18T12:59:57.550Z,5.68
2018-05-18T13:02:26.651Z,6.80
2018-05-18T13:04:55.815Z,4.55
2018-05-18T13:07:25.798Z,7.37
2018-05-18T13:09:54.360Z,7.12
2018-05-18T13:12:22.859Z,9.57
2018-05-18T13:14:51.441Z,6.28
2018-05-18T13:17:19.922Z,8.18
2018-05-18T13:19:48.300Z,7.87
2018-05-18T13:22:16.685Z,7.90
2018-05-18T13:24:45.059Z,5.57
2018-05-18T13:27:13.478Z,7.15
2018-05-18T13:29:41.863Z,5.95
2018-05-18T13:32:10.398Z,7.10
2018-05-18T13:34:38.783Z,7.10
2018-05-18T13:37:07.255Z,10.02
2018-05-18T13:39:35.944Z,7.25
2018-05-18T13:42:04.277Z,8.25
2018-05-18T13:44:33.422Z,5.43
2018-05-18T13:47:02.003Z,8.68
2018-05-18T13:49:31.122Z,7.90
2018-05-18T13:51:59.642Z,7.00
2018-05-18T13:54:28.791Z,6.70
2018-05-18T13:56:57.418Z,5.10
2018-05-18T13:59:26.663Z,5.72
2018-05-18T14:01:56.767Z,8.50
2018-05-18T14:04:25.301Z,7.68
2018-05-18T14:06:54.755Z,7.43
2018-05-18T14:09:23.351Z,5.93
2018-05-18T14:11:52.030Z,6.97
2018-05-18T14:14:20.547Z,9.60
2018-05-18T14:16:49.105Z,7.97
2018-05-18T14:19:17.576Z,8.63
2018-05-18T14:21:45.949Z,5.70
2018-05-18T14:24:14.545Z,10.55
2018-05-18T14:26:43.020Z,9.98
2018-05-18T14:29:11.562Z,8.20
2018-05-18T14:31:40.693Z,8.32
2018-05-18T14:34:09.060Z,9.88
2018-05-18T14:36:37.657Z,7.37
2018-05-18T14:39:06.238Z,7.32
2018-05-18T14:41:34.768Z,9.32
2018-05-18T14:44:04.746Z,10.00
2018-05-18T14:46:33.142Z,8.98
2018-05-18T14:49:01.909Z,8.20
2018-05-18T14:51:31.526Z,10.77
2018-05-18T14:54:00.025Z,8.75
2018-05-18T14:56:28.528Z,6.55
2018-05-18T14:58:57.638Z,5.95
2018-05-18T15:01:28.224Z,7.90
2018-05-18T15:03:56.745Z,6.68
2018-05-18T15:06:25.210Z,4.87
2018-05-18T15:08:53.619Z,10.60
2018-05-18T15:11:22.230Z,7.47
2018-05-18T15:13:50.811Z,7.80
2018-05-18T15:16:19.303Z,8.32
2018-05-18T15:18:47.830Z,9.70
2018-05-18T15:21:17.180Z,14.48
2018-05-18T15:23:45.607Z,7.12
2018-05-18T15:26:14.859Z,7.47
2018-05-18T15:28:43.452Z,10.35
2018-05-18T15:31:12.068Z,8.47
2018-05-18T15:33:41.962Z,9.07
2018-05-18T15:36:10.367Z,9.07
2018-05-18T15:38:38.810Z,14.17
2018-05-18T15:41:07.303Z,9.57
2018-05-18T15:43:35.761Z,13.67
2018-05-18T15:46:04.229Z,8.23
2018-05-18T15:48:33.133Z,6.43
2018-05-18T15:51:01.826Z,11.27
2018-05-18T15:53:30.736Z,9.53
2018-05-18T15:56:00.077Z,9.07
2018-05-18T15:58:28.740Z,7.50
2018-05-18T16:00:57.271Z,9.40
2018-05-18T16:03:25.614Z,9.63
2018-05-18T16:05:54.770Z,6.70
2018-05-18T16:08:23.259Z,9.60
2018-05-18T16:10:51.705Z,8.90
2018-05-18T16:13:20.190Z,16.03
2018-05-18T16:15:48.615Z,7.00
2018-05-18T16:18:17.234Z,10.60
2018-05-18T16:20:45.575Z,7.93
2018-05-18T16:23:14.052Z,10.63
2018-05-18T16:25:42.408Z,10.83
2018-05-18T16:28:10.869Z,11.83
2018-05-18T16:30:39.353Z,11.17
2018-05-18T16:33:07.829Z,9.07
2018-05-18T16:35:36.316Z,7.23
2018-05-18T16:38:04.894Z,12.03
2018-05-18T16:40:34.062Z,10.73
2018-05-18T16:43:03.396Z,11.17
2018-05-18T16:45:31.736Z,14.97
2018-05-18T16:48:00.917Z,7.40
2018-05-18T16:50:29.548Z,12.77
2018-05-18T16:52:59.553Z,7.47
2018-05-18T16:55:29.537Z,9.80
2018-05-18T16:57:58.725Z,8.40
2018-05-18T17:00:28.091Z,7.10
2018-05-18T17:02:57.969Z,7.87
2018-05-18T17:05:26.788Z,7.77
2018-05-18T17:07:55.265Z,8.47
2018-05-18T17:10:23.746Z,8.57
2018-05-18T17:12:52.232Z,11.70
2018-05-18T17:15:22.645Z,9.57
2018-05-18T17:17:52.160Z,9.33
2018-05-18T17:20:20.705Z,8.97
2018-05-18T17:22:50.980Z,10.20
2018-05-18T17:25:19.805Z,7.37
2018-05-18T17:27:48.949Z,8.13
2018-05-18T17:30:17.312Z,7.27
2018-05-18T17:32:46.623Z,8.27
2018-05-18T17:35:15.010Z,6.20
2018-05-18T17:37:43.435Z,10.07
2018-05-18T17:40:11.976Z,8.37
2018-05-18T17:42:40.320Z,9.93
2018-05-18T17:45:10.405Z,8.10
2018-05-18T17:47:38.971Z,14.30
2018-05-18T17:50:07.651Z,10.93
2018-05-18T17:52:36.227Z,14.43
2018-05-18T17:55:04.804Z,8.57
2018-05-18T17:57:33.257Z,11.67
2018-05-18T18:00:02.401Z,15.07
2018-05-18T18:02:31.394Z,11.07
2018-05-18T18:04:59.851Z,17.43
2018-05-18T18:07:28.455Z,16.33
2018-05-18T18:09:57.018Z,11.33
2018-05-18T18:12:25.397Z,10.83
2018-05-18T18:14:53.836Z,15.27
2018-05-18T18:17:23.074Z,11.63
2018-05-18T18:19:51.557Z,11.80
2018-05-18T18:22:20.094Z,12.37
2018-05-18T18:24:50.462Z,15.57
2018-05-18T18:27:19.071Z,12.77
2018-05-18T18:29:47.493Z,20.83
2018-05-18T18:32:16.835Z,15.20
2018-05-18T18:34:45.277Z,11.23
2018-05-18T18:37:13.692Z,14.30
2018-05-18T18:39:42.371Z,15.63
2018-05-18T18:42:10.852Z,11.20
2018-05-18T18:44:39.344Z,13.43
2018-05-18T18:47:07.715Z,10.37
2018-05-18T18:49:36.191Z,14.43
2018-05-18T18:52:04.714Z,18.27
2018-05-18T18:54:33.309Z,12.47
2018-05-18T18:57:01.859Z,12.57
2018-05-18T18:59:30.408Z,14.53
2018-05-18T19:01:59.103Z,13.97
2018-05-18T19:04:27.597Z,13.93
2018-05-18T19:06:56.100Z,11.73
2018-05-18T19:09:24.555Z,15.43
2018-05-18T19:11:53.057Z,22.00
2018-05-18T19:14:21.623Z,17.40
2018-05-18T19:16:50.919Z,25.27
2018-05-18T19:19:19.499Z,15.73
2018-05-18T19:21:48.103Z,15.47
2018-05-18T19:24:18.470Z,14.03
2018-05-18T19:26:47.712Z,7.43
2018-05-18T19:29:16.186Z,11.23
2018-05-18T19:31:44.638Z,10.03
2018-05-18T19:34:14.689Z,7.67
2018-05-18T19:36:43.098Z,8.37
2018-05-18T19:39:11.594Z,8.53
2018-05-18T19:41:40.131Z,9.80
2018-05-18T19:44:08.523Z,9.90
2018-05-18T19:46:37.259Z,8.17
2018-05-18T19:49:06.501Z,15.03
2018-05-18T19:51:35.075Z,9.40
2018-05-18T19:54:03.661Z,17.80
2018-05-18T19:56:32.193Z,10.03
2018-05-18T19:59:01.441Z,15.07
2018-05-18T20:01:31.052Z,17.07
2018-05-18T20:03:59.529Z,13.13
2018-05-18T20:06:27.958Z,10.50
2018-05-18T20:08:56.298Z,29.70
2018-05-18T20:11:24.639Z,10.83
2018-05-18T20:13:53.883Z,11.87
2018-05-18T20:16:22.257Z,14.77
2018-05-18T20:18:51.429Z,14.80
2018-05-18T20:21:20.740Z,18.47
2018-05-18T20:23:49.175Z,10.00
2018-05-18T20:26:19.131Z,16.50
2018-05-18T20:28:47.825Z,9.30
2018-05-18T20:31:20.469Z,10.97
2018-05-18T20:33:49.699Z,18.70
2018-05-18T20:36:19.771Z,18.40
2018-05-18T20:38:49.016Z,11.13
2018-05-18T20:41:17.609Z,12.87
2018-05-18T20:43:46.799Z,8.93
2018-05-18T20:46:16.982Z,12.83
2018-05-18T20:48:46.795Z,14.63
2018-05-18T20:51:17.699Z,10.93
2018-05-18T20:53:57.889Z,12.30
2018-05-18T20:56:26.360Z,8.60
2018-05-18T20:58:55.121Z,13.50
2018-05-18T21:01:23.589Z,8.13
2018-05-18T21:03:52.104Z,10.03
2018-05-18T21:06:21.355Z,12.37
2018-05-18T21:08:51.069Z,8.97
2018-05-18T21:11:20.447Z,8.63
2018-05-18T21:13:49.042Z,8.53
2018-05-18T21:16:17.647Z,15.67
2018-05-18T21:18:46.523Z,13.23
2018-05-18T21:21:15.002Z,9.70
2018-05-18T21:23:43.584Z,9.13
2018-05-18T21:26:12.103Z,7.33
2018-05-18T21:28:42.082Z,13.33
2018-05-18T21:31:10.517Z,10.60
2018-05-18T21:33:39.590Z,8.67
2018-05-18T21:36:08.346Z,11.03
2018-05-18T21:38:36.938Z,13.67
2018-05-18T21:41:05.390Z,9.10
2018-05-18T21:43:33.798Z,8.53
2018-05-18T21:46:02.267Z,9.70
2018-05-18T21:48:30.748Z,13.50
2018-05-18T21:50:59.330Z,14.27
2018-05-18T21:53:27.917Z,12.73
2018-05-18T21:55:56.605Z,9.03
2018-05-18T21:58:25.132Z,9.83
2018-05-18T22:00:54.421Z,7.17
2018-05-18T22:03:22.969Z,11.50
2018-05-18T22:05:52.000Z,11.23
2018-05-18T22:08:20.343Z,7.60
2018-05-18T22:10:48.819Z,10.83
2018-05-18T22:13:17.340Z,8.43
2018-05-18T22:15:49.061Z,9.47
2018-05-18T22:18:17.756Z,8.17
2018-05-18T22:20:47.330Z,9.50
2018-05-18T22:23:15.977Z,12.43
2018-05-18T22:25:46.366Z,6.90
2018-05-18T22:28:14.893Z,9.00
2018-05-18T22:30:45.755Z,15.70
2018-05-18T22:33:17.102Z,15.60
2018-05-18T22:35:47.067Z,11.03
2018-05-18T22:38:15.812Z,7.27
2018-05-18T22:40:45.519Z,9.63
2018-05-18T22:43:15.716Z,8.50
2018-05-18T22:45:44.399Z,7.30
2018-05-18T22:48:12.861Z,11.03
2018-05-18T22:50:41.346Z,8.57
2018-05-18T22:53:11.525Z,13.27
2018-05-18T22:55:40.318Z,9.00
2018-05-18T22:58:08.796Z,8.27
2018-05-18T23:00:37.224Z,10.20
2018-05-18T23:03:06.587Z,9.13
2018-05-18T23:05:35.907Z,8.23
2018-05-18T23:08:04.483Z,8.50
2018-05-18T23:10:34.203Z,7.30
2018-05-18T23:13:05.559Z,10.60
2018-05-18T23:15:34.826Z,11.70
2018-05-18T23:18:03.568Z,10.87
2018-05-18T23:20:32.906Z,7.83
2018-05-18T23:23:01.391Z,7.90
2018-05-18T23:25:29.820Z,9.13
2018-05-18T23:27:59.065Z,8.43
2018-05-18T23:30:27.461Z,12.70
2018-05-18T23:32:55.822Z,9.80
2018-05-18T23:35:24.351Z,10.37
2018-05-18T23:37:52.755Z,9.53
2018-05-18T23:40:22.224Z,10.60
2018-05-18T23:42:50.741Z,13.50
2018-05-18T23:45:19.187Z,12.47
2018-05-18T23:47:47.559Z,11.87
2018-05-18T23:50:16.066Z,8.80
2018-05-18T23:52:45.267Z,7.70
2018-05-18T23:55:14.622Z,9.27
2018-05-18T23:57:43.023Z,10.90
